createdAt,value
2022-09-21T00:00:51.682Z,4.20
2022-09-21T00:03:20.968Z,4.43
2022-09-21T00:05:49.106Z,4.97
2022-09-21T00:08:17.039Z,5.43
2022-09-21T00:10:50.684Z,5.43
2022-09-21T00:13:20.230Z,6.57
2022-09-21T00:15:48.689Z,6.27
2022-09-21T00:18:18.419Z,7.17
2022-09-21T00:20:47.818Z,6.37
2022-09-21T00:23:15.575Z,6.40
2022-09-21T00:25:45.345Z,6.77
2022-09-21T00:28:13.522Z,7.03
2022-09-21T00:30:41.340Z,6.67
2022-09-21T00:33:09.323Z,6.83
2022-09-21T00:35:38.040Z,5.93
2022-09-21T00:38:07.171Z,5.67
2022-09-21T00:40:35.026Z,5.80
2022-09-21T00:43:15.457Z,6.27
2022-09-21T00:45:43.670Z,5.07
2022-09-21T00:48:13.749Z,4.80
2022-09-21T00:50:43.998Z,5.30
2022-09-21T00:53:13.542Z,4.90
2022-09-21T00:55:42.432Z,4.40
2022-09-21T00:58:12.979Z,4.57
2022-09-21T01:00:41.135Z,5.13
2022-09-21T01:03:11.931Z,4.50
2022-09-21T01:05:40.322Z,4.57
2022-09-21T01:08:08.799Z,4.67
2022-09-21T01:10:43.465Z,4.60
2022-09-21T01:13:15.605Z,4.40
2022-09-21T01:15:47.752Z,5.30
2022-09-21T01:18:22.257Z,4.17
2022-09-21T01:21:05.518Z,4.70
2022-09-21T01:23:42.123Z,4.90
2022-09-21T01:26:17.403Z,5.60
2022-09-21T01:29:07.840Z,4.70
2022-09-21T01:31:39.903Z,4.70
2022-09-21T01:34:11.729Z,4.63
2022-09-21T01:36:41.219Z,5.20
2022-09-21T01:39:11.049Z,5.03
2022-09-21T01:41:40.463Z,5.23
2022-09-21T01:44:12.562Z,5.07
2022-09-21T01:46:41.047Z,5.00
2022-09-21T01:49:11.187Z,4.87
2022-09-21T01:51:41.385Z,4.83
2022-09-21T01:54:11.832Z,4.70
2022-09-21T01:56:43.065Z,5.53
2022-09-21T01:59:17.595Z,5.47
2022-09-21T02:01:47.208Z,5.50
2022-09-21T02:04:15.959Z,5.03
2022-09-21T02:06:45.431Z,5.00
2022-09-21T02:09:13.785Z,4.20
2022-09-21T02:11:45.300Z,4.83
2022-09-21T02:14:18.274Z,4.93
2022-09-21T02:16:49.246Z,5.03
2022-09-21T02:19:22.560Z,4.77
2022-09-21T02:21:57.423Z,4.63
2022-09-21T02:24:32.273Z,4.97
2022-09-21T02:27:06.236Z,4.20
2022-09-21T02:29:42.545Z,5.13
2022-09-21T02:32:14.594Z,6.53
2022-09-21T02:34:45.978Z,6.10
2022-09-21T02:37:19.707Z,6.20
2022-09-21T02:39:52.693Z,5.33
2022-09-21T02:42:25.072Z,5.60
2022-09-21T02:44:58.342Z,4.70
2022-09-21T02:47:31.604Z,3.83
2022-09-21T02:50:02.833Z,4.00
2022-09-21T02:52:32.875Z,4.37
2022-09-21T02:55:01.857Z,3.77
2022-09-21T02:57:29.646Z,4.17
2022-09-21T02:59:58.990Z,3.97
2022-09-21T03:02:37.653Z,4.13
2022-09-21T03:05:06.835Z,4.20
2022-09-21T03:07:34.914Z,4.70
2022-09-21T03:10:05.771Z,3.70
2022-09-21T03:12:34.090Z,3.83
2022-09-21T03:15:03.680Z,3.83
2022-09-21T03:17:31.812Z,3.63
2022-09-21T03:19:59.617Z,3.60
2022-09-21T03:22:27.667Z,3.87
2022-09-21T03:24:57.723Z,2.67
2022-09-21T03:27:25.729Z,3.83
2022-09-21T03:29:53.809Z,3.30
2022-09-21T03:32:23.038Z,3.43
2022-09-21T03:34:51.144Z,3.33
2022-09-21T03:37:19.080Z,2.97
2022-09-21T03:39:47.391Z,2.93
2022-09-21T03:42:15.510Z,3.03
2022-09-21T03:44:43.663Z,3.40
2022-09-21T03:47:11.766Z,3.70
2022-09-21T03:49:41.457Z,3.30
2022-09-21T03:52:09.273Z,3.43
2022-09-21T03:54:37.071Z,3.70
2022-09-21T03:57:05.277Z,4.00
2022-09-21T03:59:33.844Z,3.97
2022-09-21T04:02:01.661Z,3.83
2022-09-21T04:04:30.004Z,3.57
2022-09-21T04:06:59.741Z,3.80
2022-09-21T04:09:28.792Z,3.60
2022-09-21T04:11:58.870Z,3.70
2022-09-21T04:14:27.212Z,3.97
2022-09-21T04:16:55.228Z,4.07
2022-09-21T04:19:23.437Z,3.83
2022-09-21T04:21:51.575Z,4.37
2022-09-21T04:24:21.203Z,4.50
2022-09-21T04:26:49.343Z,3.80
2022-09-21T04:29:17.794Z,3.90
2022-09-21T04:31:46.994Z,3.90
2022-09-21T04:34:15.261Z,4.67
2022-09-21T04:36:46.206Z,4.17
2022-09-21T04:39:13.969Z,4.10
2022-09-21T04:41:43.564Z,4.53
2022-09-21T04:44:11.393Z,4.30
2022-09-21T04:46:39.351Z,4.23
2022-09-21T04:49:07.289Z,4.20
2022-09-21T04:51:35.081Z,3.53
2022-09-21T04:54:05.903Z,3.10
2022-09-21T04:56:33.782Z,3.60
2022-09-21T04:59:03.325Z,3.00
2022-09-21T05:01:30.972Z,4.93
2022-09-21T05:04:02.000Z,4.40
2022-09-21T05:06:30.519Z,4.40
2022-09-21T05:09:15.810Z,4.30
2022-09-21T05:11:43.881Z,5.50
2022-09-21T05:14:13.172Z,4.67
2022-09-21T05:16:41.322Z,4.33
2022-09-21T05:19:09.733Z,4.97
2022-09-21T05:21:40.002Z,5.30
2022-09-21T05:24:08.595Z,5.30
2022-09-21T05:26:36.343Z,5.40
2022-09-21T05:29:04.787Z,4.90
2022-09-21T05:31:39.540Z,5.40
2022-09-21T05:34:13.137Z,4.70
2022-09-21T05:36:44.484Z,5.20
2022-09-21T05:39:12.843Z,5.73
2022-09-21T05:41:40.803Z,5.00
2022-09-21T05:44:09.477Z,4.93
2022-09-21T05:46:42.258Z,4.10
2022-09-21T05:49:16.124Z,4.77
2022-09-21T05:51:47.440Z,5.00
2022-09-21T05:54:19.081Z,5.30
2022-09-21T05:56:50.282Z,5.20
2022-09-21T05:59:32.399Z,4.63
2022-09-21T06:02:06.049Z,5.10
2022-09-21T06:04:35.552Z,6.03
2022-09-21T06:07:04.783Z,6.27
2022-09-21T06:09:32.590Z,5.60
2022-09-21T06:12:00.812Z,5.53
2022-09-21T06:14:28.750Z,5.50
2022-09-21T06:16:57.019Z,5.50
2022-09-21T06:19:27.583Z,4.97
2022-09-21T06:21:55.252Z,5.50
2022-09-21T06:24:24.849Z,5.53
2022-09-21T06:26:52.934Z,5.20
2022-09-21T06:29:23.796Z,4.50
2022-09-21T06:31:52.417Z,6.20
2022-09-21T06:34:20.544Z,5.73
2022-09-21T06:36:49.905Z,6.90
2022-09-21T06:39:17.864Z,6.80
2022-09-21T06:41:45.859Z,6.13
2022-09-21T06:44:13.575Z,5.20
2022-09-21T06:46:41.630Z,5.90
2022-09-21T06:49:09.644Z,5.00
2022-09-21T06:51:38.917Z,6.30
2022-09-21T06:54:08.418Z,3.97
2022-09-21T06:56:38.837Z,5.23
2022-09-21T06:59:06.688Z,3.40
2022-09-21T07:01:34.523Z,2.73
2022-09-21T07:04:03.627Z,2.57
2022-09-21T07:06:31.915Z,1.63
2022-09-21T07:11:49.834Z,1.70
2022-09-21T07:14:20.407Z,1.80
2022-09-21T07:16:48.186Z,1.30
2022-09-21T07:19:17.630Z,1.80
2022-09-21T07:21:45.635Z,1.70
2022-09-21T07:24:15.222Z,1.90
2022-09-21T07:26:44.288Z,2.00
2022-09-21T07:29:13.873Z,2.53
2022-09-21T07:31:45.060Z,2.30
2022-09-21T07:34:12.852Z,3.10
2022-09-21T07:36:40.636Z,4.17
2022-09-21T07:39:10.411Z,3.30
2022-09-21T07:41:38.937Z,2.73
2022-09-21T07:44:06.724Z,2.17
2022-09-21T07:46:41.246Z,2.10
2022-09-21T07:49:13.570Z,2.03
2022-09-21T07:51:41.588Z,2.07
2022-09-21T07:54:10.862Z,2.27
2022-09-21T07:56:39.088Z,1.87
2022-09-21T07:59:06.079Z,2.93
2022-09-21T08:01:34.612Z,2.10
2022-09-21T08:04:04.867Z,1.90
2022-09-21T08:06:33.729Z,1.90
2022-09-21T08:09:02.205Z,2.53
2022-09-21T08:11:31.576Z,1.77
2022-09-21T08:14:00.892Z,1.90
2022-09-21T08:16:31.245Z,2.03
2022-09-21T08:19:02.499Z,1.67
2022-09-21T08:21:32.714Z,2.37
2022-09-21T08:24:00.874Z,2.23
2022-09-21T08:26:28.868Z,2.43
2022-09-21T08:28:58.947Z,2.17
2022-09-21T08:31:27.402Z,2.20
2022-09-21T08:33:55.964Z,1.87
2022-09-21T08:36:23.773Z,2.93
2022-09-21T08:38:55.140Z,4.07
2022-09-21T08:41:24.849Z,3.10
2022-09-21T08:43:54.155Z,1.90
2022-09-21T08:46:24.090Z,2.00
2022-09-21T08:48:55.869Z,2.90
2022-09-21T08:51:25.999Z,2.50
2022-09-21T08:53:57.640Z,2.90
2022-09-21T08:56:36.993Z,2.67
2022-09-21T08:59:15.889Z,3.77
2022-09-21T09:01:50.796Z,1.60
2022-09-21T09:04:33.908Z,1.70
2022-09-21T09:07:10.305Z,1.97
2022-09-21T09:09:55.949Z,1.20
2022-09-21T09:12:34.244Z,0.93
2022-09-21T09:15:26.169Z,1.00
2022-09-21T09:18:00.624Z,1.40
2022-09-21T09:20:30.819Z,1.47
2022-09-21T09:23:04.411Z,1.20
2022-09-21T09:25:37.395Z,1.47
2022-09-21T09:28:10.530Z,1.00
2022-09-21T09:30:39.476Z,1.27
2022-09-21T09:33:09.759Z,1.07
2022-09-21T09:35:39.657Z,3.03
2022-09-21T09:38:12.627Z,1.17
2022-09-21T09:40:52.877Z,4.23
2022-09-21T09:43:28.562Z,2.43
2022-09-21T09:46:04.732Z,1.03
2022-09-21T09:48:39.425Z,1.33
2022-09-21T09:51:12.219Z,2.07
2022-09-21T09:53:40.585Z,2.20
2022-09-21T09:56:15.973Z,3.23
2022-09-21T09:58:48.117Z,2.07
2022-09-21T10:01:30.970Z,1.47
2022-09-21T10:04:07.054Z,1.40
2022-09-21T10:06:38.621Z,2.33
2022-09-21T10:09:20.205Z,3.33
2022-09-21T10:11:50.121Z,1.40
2022-09-21T10:14:20.008Z,1.23
2022-09-21T10:16:50.259Z,1.43
2022-09-21T10:19:22.177Z,1.23
2022-09-21T10:21:54.278Z,1.37
2022-09-21T10:24:23.853Z,1.10
2022-09-21T10:26:55.663Z,1.13
2022-09-21T10:29:31.231Z,1.10
2022-09-21T10:32:00.305Z,1.20
2022-09-21T10:34:29.235Z,1.10
2022-09-21T10:36:57.986Z,1.40
2022-09-21T10:39:27.259Z,2.73
2022-09-21T10:41:58.696Z,1.30
2022-09-21T10:44:28.546Z,1.87
2022-09-21T10:49:30.870Z,0.90
2022-09-21T10:51:59.567Z,0.90
2022-09-21T10:54:28.539Z,0.83
2022-09-21T10:57:00.992Z,0.77
2022-09-21T10:59:31.129Z,0.73
2022-09-21T11:02:00.363Z,0.93
2022-09-21T11:04:42.002Z,1.83
2022-09-21T11:07:16.564Z,1.13
2022-09-21T11:09:46.955Z,3.03
2022-09-21T11:12:27.300Z,2.40
2022-09-21T11:14:58.682Z,1.40
2022-09-21T11:17:30.714Z,0.90
2022-09-21T11:20:02.186Z,3.07
2022-09-21T11:22:35.663Z,1.33
2022-09-21T11:25:08.991Z,0.70
2022-09-21T11:27:40.945Z,1.17
2022-09-21T11:30:12.072Z,0.70
2022-09-21T11:32:53.073Z,0.80
2022-09-21T11:35:27.434Z,1.07
2022-09-21T11:38:06.698Z,0.97
2022-09-21T11:40:43.158Z,0.73
2022-09-21T11:43:22.597Z,0.93
2022-09-21T11:45:59.617Z,0.87
2022-09-21T11:48:33.979Z,0.83
2022-09-21T11:51:07.758Z,1.00
2022-09-21T11:54:03.448Z,0.70
2022-09-21T11:56:42.671Z,0.60
2022-09-21T11:59:22.936Z,0.70
2022-09-21T12:01:58.654Z,0.50
2022-09-21T12:04:34.990Z,0.50
2022-09-21T12:07:11.048Z,0.60
2022-09-21T12:09:53.705Z,0.80
2022-09-21T12:12:22.852Z,0.50
2022-09-21T12:14:57.379Z,0.60
2022-09-21T12:17:31.335Z,0.60
2022-09-21T12:20:06.809Z,0.83
2022-09-21T12:22:37.775Z,0.50
2022-09-21T12:25:07.769Z,0.70
2022-09-21T12:27:37.786Z,0.80
2022-09-21T12:30:13.821Z,0.80
2022-09-21T12:32:50.138Z,0.77
2022-09-21T12:35:21.374Z,0.70
2022-09-21T12:37:51.519Z,0.60
2022-09-21T12:40:28.053Z,0.50
2022-09-21T12:43:00.146Z,0.53
2022-09-21T12:45:31.542Z,0.50
2022-09-21T12:48:02.033Z,0.50
2022-09-21T12:50:32.811Z,0.63
2022-09-21T12:53:01.472Z,0.60
2022-09-21T12:55:35.096Z,0.70
2022-09-21T12:58:21.911Z,0.53
2022-09-21T13:00:57.618Z,0.40
2022-09-21T13:03:30.152Z,0.60
2022-09-21T13:06:06.884Z,0.70
2022-09-21T13:08:37.050Z,0.50
2022-09-21T13:11:06.261Z,0.60
2022-09-21T13:13:35.381Z,0.53
2022-09-21T13:16:06.350Z,0.70
2022-09-21T13:18:36.831Z,0.60
2022-09-21T13:21:16.836Z,0.53
2022-09-21T13:23:45.164Z,0.97
2022-09-21T13:26:13.868Z,1.37
2022-09-21T13:29:00.312Z,0.90
2022-09-21T13:31:46.755Z,0.57
2022-09-21T13:34:32.782Z,0.60
2022-09-21T13:37:33.356Z,0.67
2022-09-21T13:40:19.926Z,0.50
2022-09-21T13:42:49.499Z,0.30
2022-09-21T13:45:47.248Z,0.43
2022-09-21T13:48:22.656Z,0.43
2022-09-21T13:50:51.166Z,0.60
2022-09-21T13:53:20.487Z,0.57
2022-09-21T13:55:50.935Z,0.67
2022-09-21T13:58:24.140Z,0.70
2022-09-21T14:00:54.139Z,1.00
2022-09-21T14:03:26.271Z,1.20
2022-09-21T14:05:56.230Z,1.00
2022-09-21T14:08:26.975Z,0.93
2022-09-21T14:10:56.483Z,1.13
2022-09-21T14:13:28.655Z,0.90
2022-09-21T14:15:56.530Z,1.00
2022-09-21T14:18:47.013Z,1.20
2022-09-21T14:21:19.826Z,1.37
2022-09-21T14:24:06.346Z,1.30
2022-09-21T14:26:35.279Z,1.40
2022-09-21T14:29:09.679Z,1.30
2022-09-21T14:31:41.326Z,1.57
2022-09-21T14:34:13.642Z,1.00
2022-09-21T14:36:46.962Z,1.80
2022-09-21T14:39:20.024Z,1.40
2022-09-21T14:41:51.301Z,1.43
2022-09-21T14:44:21.778Z,2.03
2022-09-21T14:47:16.846Z,4.07
2022-09-21T14:50:07.504Z,1.70
2022-09-21T14:52:44.145Z,1.97
2022-09-21T14:55:17.508Z,1.20
2022-09-21T14:57:51.798Z,1.80
2022-09-21T15:00:23.633Z,2.47
2022-09-21T15:02:57.702Z,1.90
2022-09-21T15:05:31.749Z,1.60
2022-09-21T15:08:32.976Z,1.53
2022-09-21T15:11:04.318Z,2.17
2022-09-21T15:13:41.766Z,1.90
2022-09-21T15:16:36.991Z,1.80
2022-09-21T15:19:19.247Z,1.90
2022-09-21T15:21:48.321Z,2.00
2022-09-21T15:24:20.533Z,1.57
2022-09-21T15:26:49.282Z,1.63
2022-09-21T15:29:24.582Z,1.30
2022-09-21T15:31:52.529Z,1.37
2022-09-21T15:34:24.635Z,1.67
2022-09-21T15:36:53.227Z,1.80
2022-09-21T15:39:23.614Z,1.30
2022-09-21T15:41:56.954Z,1.67
2022-09-21T15:44:29.416Z,1.53
2022-09-21T15:47:01.271Z,0.97
2022-09-21T15:49:31.293Z,0.80
2022-09-21T15:52:01.810Z,0.90
2022-09-21T15:54:32.326Z,1.07
2022-09-21T15:57:03.542Z,1.10
2022-09-21T15:59:34.310Z,0.90
2022-09-21T16:02:11.749Z,1.13
2022-09-21T16:04:49.544Z,1.10
2022-09-21T16:07:26.625Z,1.17
2022-09-21T16:09:55.597Z,1.33
2022-09-21T16:12:41.739Z,1.20
2022-09-21T16:15:28.559Z,1.77
2022-09-21T16:18:01.612Z,1.93
2022-09-21T16:20:42.202Z,2.17
2022-09-21T16:23:14.062Z,1.70
2022-09-21T16:25:43.152Z,1.40
2022-09-21T16:28:30.862Z,1.50
2022-09-21T16:30:59.230Z,1.87
2022-09-21T16:33:41.330Z,2.80
2022-09-21T16:36:29.702Z,2.57
2022-09-21T16:39:00.294Z,1.60
2022-09-21T16:41:34.939Z,2.43
2022-09-21T16:44:06.010Z,1.90
2022-09-21T16:46:33.889Z,2.07
2022-09-21T16:49:02.285Z,1.70
2022-09-21T16:51:30.082Z,1.90
2022-09-21T16:54:00.116Z,2.13
2022-09-21T16:56:28.107Z,1.80
2022-09-21T16:58:57.267Z,2.10
2022-09-21T17:01:25.375Z,2.30
2022-09-21T17:03:53.458Z,2.70
2022-09-21T17:06:22.487Z,3.53
2022-09-21T17:08:51.370Z,3.30
2022-09-21T17:11:21.422Z,2.87
2022-09-21T17:13:49.732Z,2.10
2022-09-21T17:16:18.407Z,3.20
2022-09-21T17:18:47.381Z,2.50
2022-09-21T17:21:15.848Z,2.17
2022-09-21T17:23:44.108Z,3.00
2022-09-21T17:26:19.319Z,2.77
2022-09-21T17:28:48.847Z,2.70
2022-09-21T17:31:17.842Z,3.00
2022-09-21T17:33:48.308Z,3.03
2022-09-21T17:36:16.703Z,3.33
2022-09-21T17:38:45.276Z,2.60
2022-09-21T17:41:18.414Z,1.97
2022-09-21T17:43:50.214Z,3.00
2022-09-21T17:46:24.723Z,2.80
2022-09-21T17:48:52.743Z,3.37
2022-09-21T17:51:34.745Z,3.80
2022-09-21T17:54:02.945Z,3.83
2022-09-21T17:56:36.403Z,4.10
2022-09-21T17:59:06.681Z,4.73
2022-09-21T18:01:37.928Z,4.10
2022-09-21T18:04:06.335Z,4.20
2022-09-21T18:06:35.754Z,4.77
2022-09-21T18:09:04.684Z,3.30
2022-09-21T18:11:43.745Z,4.33
2022-09-21T18:14:20.396Z,4.00
2022-09-21T18:16:53.109Z,3.90
2022-09-21T18:19:27.955Z,3.43
2022-09-21T18:21:58.606Z,4.40
2022-09-21T18:24:30.983Z,4.30
2022-09-21T18:27:00.261Z,4.47
2022-09-21T18:29:46.528Z,4.50
2022-09-21T18:32:30.808Z,4.53
2022-09-21T18:35:13.260Z,6.87
2022-09-21T18:37:46.003Z,5.63
2022-09-21T18:40:21.802Z,11.17
2022-09-21T18:42:53.532Z,15.90
2022-09-21T18:45:24.285Z,5.10
2022-09-21T18:47:59.839Z,4.77
2022-09-21T18:50:31.900Z,4.17
2022-09-21T18:53:03.268Z,4.00
2022-09-21T18:55:33.464Z,3.80
2022-09-21T18:58:01.971Z,4.53
2022-09-21T19:00:32.405Z,4.20
2022-09-21T19:03:18.023Z,3.93
2022-09-21T19:05:50.775Z,4.37
2022-09-21T19:08:24.630Z,5.77
2022-09-21T19:10:55.210Z,4.43
2022-09-21T19:13:32.945Z,5.40
2022-09-21T19:16:06.090Z,4.10
2022-09-21T19:18:41.367Z,5.60
2022-09-21T19:21:12.951Z,5.60
2022-09-21T19:23:51.331Z,5.63
2022-09-21T19:26:23.904Z,5.67
2022-09-21T19:29:10.834Z,6.33
2022-09-21T19:31:39.000Z,6.90
2022-09-21T19:34:11.865Z,4.63
2022-09-21T19:36:40.271Z,5.30
2022-09-21T19:39:10.487Z,6.07
2022-09-21T19:41:42.230Z,5.90
2022-09-21T19:44:29.779Z,5.77
2022-09-21T19:47:00.409Z,5.57
2022-09-21T19:49:32.964Z,4.70
2022-09-21T19:52:04.606Z,5.03
2022-09-21T19:54:51.906Z,5.63
2022-09-21T19:57:38.450Z,5.50
2022-09-21T20:00:08.018Z,6.03
2022-09-21T20:02:39.078Z,6.07
2022-09-21T20:05:09.312Z,6.83
2022-09-21T20:07:44.417Z,5.77
2022-09-21T20:10:31.127Z,6.10
2022-09-21T20:13:06.894Z,5.90
2022-09-21T20:15:37.890Z,6.07
2022-09-21T20:18:13.164Z,5.87
2022-09-21T20:20:42.423Z,5.63
2022-09-21T20:23:11.636Z,6.60
2022-09-21T20:25:46.062Z,6.03
2022-09-21T20:28:15.018Z,6.40
2022-09-21T20:30:42.977Z,6.60
2022-09-21T20:33:14.777Z,6.33
2022-09-21T20:35:43.960Z,6.40
2022-09-21T20:38:12.254Z,6.83
2022-09-21T20:40:42.183Z,6.40
2022-09-21T20:43:11.873Z,6.60
2022-09-21T20:45:40.968Z,6.73
2022-09-21T20:48:24.667Z,6.03
2022-09-21T20:50:55.422Z,6.93
2022-09-21T20:53:23.531Z,7.07
2022-09-21T20:55:56.635Z,6.30
2022-09-21T20:58:25.118Z,7.10
2022-09-21T21:00:58.612Z,6.87
2022-09-21T21:03:27.133Z,6.37
2022-09-21T21:05:55.429Z,6.53
2022-09-21T21:08:23.479Z,6.37
2022-09-21T21:10:51.776Z,6.30
2022-09-21T21:13:22.798Z,6.53
2022-09-21T21:15:54.252Z,7.10
2022-09-21T21:18:22.609Z,6.83
2022-09-21T21:20:52.588Z,6.57
2022-09-21T21:23:20.513Z,6.57
2022-09-21T21:25:49.117Z,5.90
2022-09-21T21:28:17.451Z,6.30
2022-09-21T21:30:52.820Z,6.83
2022-09-21T21:33:23.106Z,7.10
2022-09-21T21:35:51.427Z,7.63
2022-09-21T21:38:19.082Z,7.50
2022-09-21T21:40:47.564Z,6.50
2022-09-21T21:43:15.741Z,6.07
2022-09-21T21:45:43.526Z,6.00
2022-09-21T21:48:12.677Z,6.93
2022-09-21T21:50:43.459Z,6.30
2022-09-21T21:53:13.598Z,6.77
2022-09-21T21:55:41.685Z,6.70
2022-09-21T21:58:09.455Z,7.97
2022-09-21T22:00:37.443Z,6.60
2022-09-21T22:03:05.220Z,6.33
2022-09-21T22:05:35.676Z,6.00
2022-09-21T22:08:03.748Z,6.07
2022-09-21T22:10:31.424Z,6.70
2022-09-21T22:12:59.898Z,6.60
2022-09-21T22:15:28.000Z,6.90
2022-09-21T22:17:56.098Z,6.13
2022-09-21T22:20:24.142Z,7.03
2022-09-21T22:22:53.312Z,6.57
2022-09-21T22:25:21.674Z,7.03
2022-09-21T22:27:49.588Z,6.60
2022-09-21T22:30:17.419Z,7.60
2022-09-21T22:32:46.736Z,6.97
2022-09-21T22:35:14.581Z,7.03
2022-09-21T22:37:42.654Z,6.90
2022-09-21T22:40:14.139Z,7.60
2022-09-21T22:42:42.342Z,7.03
2022-09-21T22:45:10.311Z,6.50
2022-09-21T22:47:38.227Z,7.30
2022-09-21T22:50:06.906Z,5.30
2022-09-21T22:52:35.261Z,5.63
2022-09-21T22:55:03.334Z,5.87
2022-09-21T22:57:32.751Z,4.60
2022-09-21T23:00:00.531Z,6.03
2022-09-21T23:02:29.290Z,5.00
2022-09-21T23:04:57.067Z,5.30
2022-09-21T23:07:25.462Z,4.47
2022-09-21T23:09:53.415Z,4.83
2022-09-21T23:12:21.560Z,5.27
2022-09-21T23:14:51.000Z,4.80
2022-09-21T23:17:18.901Z,4.87
2022-09-21T23:19:46.915Z,5.07
2022-09-21T23:22:14.644Z,4.60
2022-09-21T23:24:42.449Z,5.70
2022-09-21T23:27:10.356Z,6.00
2022-09-21T23:29:38.331Z,5.13
2022-09-21T23:32:07.886Z,3.97
2022-09-21T23:34:36.058Z,5.63
2022-09-21T23:37:04.066Z,5.37
2022-09-21T23:39:31.948Z,5.60
2022-09-21T23:42:00.123Z,4.80
2022-09-21T23:44:27.884Z,5.53
2022-09-21T23:46:55.893Z,4.97
2022-09-21T23:49:25.290Z,5.03
2022-09-21T23:51:53.512Z,5.53
2022-09-21T23:54:21.473Z,5.60
2022-09-21T23:56:49.391Z,6.07
2022-09-21T23:59:17.076Z,6.77
